createdAt,value
2018-07-24T00:02:14.309Z,20.29
2018-07-24T00:04:42.874Z,20.20
2018-07-24T00:07:11.446Z,20.17
2018-07-24T00:09:40.051Z,20.07
2018-07-24T00:12:08.573Z,19.95
2018-07-24T00:14:37.309Z,19.86
2018-07-24T00:17:05.798Z,19.76
2018-07-24T00:19:34.287Z,19.78
2018-07-24T00:22:02.839Z,19.78
2018-07-24T00:24:31.477Z,19.67
2018-07-24T00:27:00.177Z,19.59
2018-07-24T00:29:28.710Z,19.56
2018-07-24T00:31:57.814Z,19.47
2018-07-24T00:34:26.278Z,19.39
2018-07-24T00:36:54.762Z,19.37
2018-07-24T00:39:23.218Z,19.31
2018-07-24T00:41:52.038Z,19.30
2018-07-24T00:44:20.575Z,19.32
2018-07-24T00:46:49.110Z,19.25
2018-07-24T00:49:17.745Z,19.22
2018-07-24T00:51:46.639Z,19.17
2018-07-24T00:54:15.300Z,19.08
2018-07-24T00:56:48.679Z,19.05
2018-07-24T00:59:17.146Z,19.07
2018-07-24T01:01:45.678Z,19.07
2018-07-24T01:04:14.249Z,18.99
2018-07-24T01:06:42.813Z,18.88
2018-07-24T01:09:11.951Z,18.82
2018-07-24T01:11:40.986Z,18.83
2018-07-24T01:14:10.125Z,18.83
2018-07-24T01:16:38.790Z,18.81
2018-07-24T01:19:07.405Z,18.75
2018-07-24T01:21:36.064Z,18.77
2018-07-24T01:24:04.638Z,18.75
2018-07-24T01:26:33.153Z,18.75
2018-07-24T01:29:01.842Z,18.69
2018-07-24T01:31:30.393Z,18.62
2018-07-24T01:33:59.186Z,18.67
2018-07-24T01:36:27.653Z,18.61
2018-07-24T01:38:56.253Z,18.60
2018-07-24T01:41:25.374Z,18.57
2018-07-24T01:43:53.888Z,18.59
2018-07-24T01:46:22.577Z,18.56
2018-07-24T01:48:51.938Z,18.50
2018-07-24T01:51:20.750Z,18.45
2018-07-24T01:53:49.250Z,18.41
2018-07-24T02:02:41.394Z,18.16
2018-07-24T02:05:11.357Z,18.09
2018-07-24T02:07:40.118Z,18.05
2018-07-24T02:10:08.606Z,18.00
2018-07-24T02:12:37.291Z,17.99
2018-07-24T02:15:06.793Z,17.94
2018-07-24T02:17:36.089Z,17.92
2018-07-24T02:20:05.047Z,17.89
2018-07-24T02:22:33.641Z,17.85
2018-07-24T02:25:02.346Z,17.80
2018-07-24T02:27:31.858Z,17.76
2018-07-24T02:30:00.657Z,17.76
2018-07-24T02:32:29.365Z,17.71
2018-07-24T02:34:58.378Z,17.73
2018-07-24T02:37:26.989Z,17.75
2018-07-24T02:39:55.544Z,17.78
2018-07-24T02:42:24.755Z,17.79
2018-07-24T02:44:53.334Z,17.73
2018-07-24T02:47:21.765Z,17.71
2018-07-24T02:49:50.400Z,17.73
2018-07-24T02:52:18.879Z,17.72
2018-07-24T02:54:47.375Z,17.70
2018-07-24T02:57:15.908Z,17.66
2018-07-24T02:59:44.554Z,17.63
2018-07-24T03:02:13.115Z,17.61
2018-07-24T03:04:41.698Z,17.58
2018-07-24T03:07:10.474Z,17.55
2018-07-24T03:09:39.088Z,17.47
2018-07-24T03:12:07.680Z,17.31
2018-07-24T03:14:36.232Z,17.26
2018-07-24T03:17:04.781Z,17.17
2018-07-24T03:19:33.539Z,17.07
2018-07-24T03:22:02.059Z,17.10
2018-07-24T03:24:30.625Z,17.05
2018-07-24T03:26:59.266Z,17.00
2018-07-24T03:29:27.823Z,17.00
2018-07-24T03:31:56.444Z,17.04
2018-07-24T03:34:25.027Z,16.97
2018-07-24T03:36:53.738Z,16.93
2018-07-24T03:39:22.331Z,16.92
2018-07-24T03:41:51.226Z,16.98
2018-07-24T03:44:20.702Z,16.97
2018-07-24T03:46:49.327Z,16.92
2018-07-24T03:49:17.992Z,16.90
2018-07-24T03:51:46.572Z,16.89
2018-07-24T03:54:15.056Z,16.93
2018-07-24T03:56:43.562Z,16.95
2018-07-24T03:59:12.151Z,16.97
2018-07-24T04:01:40.694Z,16.93
2018-07-24T04:04:09.146Z,16.93
2018-07-24T04:06:37.838Z,16.98
2018-07-24T04:09:08.643Z,16.98
2018-07-24T04:11:37.693Z,16.97
2018-07-24T04:14:06.150Z,16.94
2018-07-24T04:16:34.817Z,16.91
2018-07-24T04:19:03.335Z,16.87
2018-07-24T04:21:31.927Z,16.83
2018-07-24T04:24:00.385Z,16.82
2018-07-24T04:26:28.885Z,16.85
2018-07-24T04:28:57.575Z,16.89
2018-07-24T04:31:26.089Z,16.93
2018-07-24T04:33:54.662Z,17.00
2018-07-24T04:36:23.155Z,17.09
2018-07-24T04:38:51.673Z,17.18
2018-07-24T04:41:20.338Z,17.22
2018-07-24T04:43:48.864Z,17.26
2018-07-24T04:46:17.718Z,17.33
2018-07-24T04:48:46.297Z,17.42
2018-07-24T04:51:15.004Z,17.47
2018-07-24T04:53:44.287Z,17.54
2018-07-24T04:56:12.967Z,17.61
2018-07-24T04:58:41.562Z,17.69
2018-07-24T05:01:10.202Z,17.77
2018-07-24T05:03:38.689Z,17.84
2018-07-24T05:06:07.211Z,17.93
2018-07-24T05:08:35.719Z,18.02
2018-07-24T05:11:04.242Z,18.11
2018-07-24T05:13:32.714Z,18.17
2018-07-24T05:16:01.335Z,18.20
2018-07-24T05:18:29.942Z,18.24
2018-07-24T05:20:58.491Z,18.34
2018-07-24T05:23:27.393Z,18.42
2018-07-24T05:25:56.549Z,18.48
2018-07-24T05:28:25.406Z,18.59
2018-07-24T05:30:53.965Z,18.67
2018-07-24T05:33:22.515Z,18.75
2018-07-24T05:35:51.034Z,18.86
2018-07-24T05:38:19.589Z,18.95
2018-07-24T05:40:48.342Z,19.01
2018-07-24T05:43:16.853Z,19.09
2018-07-24T05:45:45.358Z,19.21
2018-07-24T05:48:14.118Z,19.27
2018-07-24T05:50:42.838Z,19.30
2018-07-24T05:53:11.455Z,19.41
2018-07-24T05:55:39.962Z,19.46
2018-07-24T05:58:08.438Z,19.49
2018-07-24T06:00:36.945Z,19.56
2018-07-24T06:03:05.435Z,19.63
2018-07-24T06:05:33.989Z,19.74
2018-07-24T06:08:03.766Z,19.82
2018-07-24T06:10:32.341Z,19.92
2018-07-24T06:13:00.872Z,20.03
2018-07-24T06:15:29.329Z,20.11
2018-07-24T06:17:57.907Z,20.22
2018-07-24T06:20:26.700Z,20.29
2018-07-24T06:22:55.457Z,20.37
2018-07-24T06:25:24.280Z,20.41
2018-07-24T06:27:52.792Z,20.49
2018-07-24T06:30:21.272Z,20.56
2018-07-24T06:32:49.790Z,20.65
2018-07-24T06:35:18.343Z,20.74
2018-07-24T06:37:46.923Z,20.85
2018-07-24T06:40:15.405Z,20.87
2018-07-24T06:42:43.900Z,21.05
2018-07-24T06:45:12.470Z,21.20
2018-07-24T06:47:41.099Z,21.33
2018-07-24T06:50:09.702Z,21.44
2018-07-24T06:52:38.502Z,21.55
2018-07-24T06:55:07.090Z,21.63
2018-07-24T06:57:35.695Z,21.69
2018-07-24T07:00:04.341Z,21.80
2018-07-24T07:02:32.909Z,21.87
2018-07-24T07:05:02.016Z,21.93
2018-07-24T07:07:30.622Z,22.03
2018-07-24T07:09:59.102Z,22.16
2018-07-24T07:12:27.950Z,22.32
2018-07-24T07:14:56.590Z,22.38
2018-07-24T07:17:25.084Z,22.50
2018-07-24T07:19:53.582Z,22.52
2018-07-24T07:22:22.147Z,22.65
2018-07-24T07:24:50.632Z,22.77
2018-07-24T07:27:19.210Z,22.89
2018-07-24T07:29:47.729Z,22.97
2018-07-24T07:32:16.440Z,23.02
2018-07-24T07:34:44.943Z,23.07
2018-07-24T07:37:13.438Z,23.22
2018-07-24T07:39:42.099Z,23.37
2018-07-24T07:42:10.830Z,23.45
2018-07-24T07:44:39.299Z,23.58
2018-07-24T07:47:08.119Z,23.58
2018-07-24T07:49:36.746Z,23.73
2018-07-24T07:52:05.303Z,23.82
2018-07-24T07:54:33.831Z,23.91
2018-07-24T07:57:02.307Z,24.09
2018-07-24T07:59:30.843Z,24.22
2018-07-24T08:01:59.655Z,24.21
2018-07-24T08:04:28.228Z,24.26
2018-07-24T08:06:57.118Z,24.33
2018-07-24T08:09:25.653Z,24.47
2018-07-24T08:11:54.474Z,24.50
2018-07-24T08:14:23.234Z,24.61
2018-07-24T08:16:51.955Z,24.76
2018-07-24T08:19:20.603Z,24.89
2018-07-24T08:21:49.171Z,25.01
2018-07-24T08:24:17.715Z,25.17
2018-07-24T08:26:46.345Z,25.21
2018-07-24T08:29:14.849Z,25.36
2018-07-24T08:31:43.475Z,25.47
2018-07-24T08:34:11.996Z,25.62
2018-07-24T08:36:40.459Z,25.77
2018-07-24T08:39:11.162Z,25.83
2018-07-24T08:41:39.921Z,25.93
2018-07-24T08:44:08.540Z,26.17
2018-07-24T08:46:37.106Z,26.23
2018-07-24T08:49:06.923Z,26.46
2018-07-24T08:51:35.357Z,26.61
2018-07-24T08:54:04.161Z,26.69
2018-07-24T08:56:32.550Z,26.92
2018-07-24T08:59:01.159Z,27.26
2018-07-24T09:01:29.814Z,27.46
2018-07-24T09:03:58.455Z,27.57
2018-07-24T09:06:26.962Z,27.86
2018-07-24T09:08:56.102Z,28.00
2018-07-24T09:11:24.657Z,28.01
2018-07-24T09:13:53.306Z,28.21
2018-07-24T09:16:21.858Z,28.60
2018-07-24T09:18:50.485Z,28.61
2018-07-24T09:21:18.994Z,28.63
2018-07-24T09:23:47.562Z,28.61
2018-07-24T09:26:16.067Z,28.75
2018-07-24T09:28:44.658Z,29.03
2018-07-24T09:31:13.221Z,29.34
2018-07-24T09:33:41.935Z,29.55
2018-07-24T09:36:10.519Z,29.52
2018-07-24T09:38:39.030Z,29.70
2018-07-24T09:41:07.570Z,29.76
2018-07-24T09:43:36.026Z,29.90
2018-07-24T09:46:04.567Z,30.42
2018-07-24T09:48:33.198Z,30.64
2018-07-24T09:51:01.793Z,31.00
2018-07-24T09:53:30.582Z,31.47
2018-07-24T09:55:59.292Z,32.23
2018-07-24T09:58:27.811Z,32.77
2018-07-24T10:01:01.712Z,32.96
2018-07-24T10:03:30.213Z,33.52
2018-07-24T10:05:58.723Z,33.62
2018-07-24T10:08:27.605Z,33.79
2018-07-24T10:10:56.600Z,33.66
2018-07-24T10:13:25.122Z,34.39
2018-07-24T10:15:53.820Z,34.80
2018-07-24T10:18:22.290Z,34.54
2018-07-24T10:20:50.861Z,34.74
2018-07-24T10:23:19.451Z,35.51
2018-07-24T10:25:48.160Z,34.84
2018-07-24T10:28:16.771Z,35.25
2018-07-24T10:30:45.432Z,35.48
2018-07-24T10:33:14.022Z,36.33
2018-07-24T10:35:42.619Z,35.51
2018-07-24T10:38:11.151Z,35.86
2018-07-24T10:40:39.963Z,36.03
2018-07-24T10:43:08.678Z,36.44
2018-07-24T10:45:37.218Z,36.89
2018-07-24T10:48:05.794Z,37.52
2018-07-24T10:50:34.299Z,37.39
2018-07-24T10:53:02.970Z,37.54
2018-07-24T10:55:31.500Z,37.98
2018-07-24T10:58:00.307Z,37.44
2018-07-24T11:00:28.942Z,38.21
2018-07-24T11:02:57.534Z,38.44
2018-07-24T11:05:26.019Z,38.96
2018-07-24T11:07:56.610Z,39.11
2018-07-24T11:10:25.058Z,39.19
2018-07-24T11:12:53.792Z,39.36
2018-07-24T11:15:22.573Z,39.82
2018-07-24T11:17:51.146Z,38.89
2018-07-24T11:20:19.728Z,39.58
2018-07-24T11:22:48.886Z,39.38
2018-07-24T11:25:17.156Z,39.38
2018-07-24T11:27:45.798Z,39.89
2018-07-24T11:30:14.353Z,40.14
2018-07-24T11:32:42.830Z,40.02
2018-07-24T11:35:11.439Z,40.43
2018-07-24T11:37:40.031Z,41.31
2018-07-24T11:40:08.642Z,41.24
2018-07-24T11:42:37.261Z,41.78
2018-07-24T11:45:06.610Z,41.82
2018-07-24T11:47:35.299Z,42.54
2018-07-24T11:50:03.932Z,42.28
2018-07-24T11:52:32.558Z,41.63
2018-07-24T11:55:01.116Z,43.14
2018-07-24T11:57:29.658Z,42.80
2018-07-24T11:59:58.145Z,43.69
2018-07-24T12:02:26.806Z,43.57
2018-07-24T12:04:55.384Z,43.34
2018-07-24T12:07:23.933Z,43.46
2018-07-24T12:09:52.473Z,43.25
2018-07-24T12:12:21.001Z,43.56
2018-07-24T12:14:50.574Z,44.88
2018-07-24T12:17:19.203Z,45.10
2018-07-24T12:19:47.743Z,43.53
2018-07-24T12:22:16.261Z,44.60
2018-07-24T12:24:44.759Z,45.29
2018-07-24T12:27:13.368Z,44.86
2018-07-24T12:29:41.958Z,44.91
2018-07-24T12:32:10.599Z,45.02
2018-07-24T12:34:39.311Z,45.71
2018-07-24T12:37:07.862Z,45.16
2018-07-24T12:39:40.886Z,45.28
2018-07-24T12:42:09.373Z,45.67
2018-07-24T12:44:37.846Z,45.02
2018-07-24T12:47:06.681Z,45.23
2018-07-24T12:49:35.216Z,45.95
2018-07-24T12:52:03.768Z,46.62
2018-07-24T12:54:32.233Z,46.58
2018-07-24T12:57:00.736Z,46.76
2018-07-24T12:59:29.213Z,48.23
2018-07-24T13:01:57.800Z,47.84
2018-07-24T13:04:26.290Z,48.04
2018-07-24T13:06:54.814Z,48.48
2018-07-24T13:09:23.397Z,48.67
2018-07-24T13:11:51.946Z,48.04
2018-07-24T13:14:20.498Z,48.39
2018-07-24T13:16:49.123Z,48.71
2018-07-24T13:19:17.786Z,48.44
2018-07-24T13:21:46.403Z,49.43
2018-07-24T13:24:15.003Z,48.82
2018-07-24T13:26:43.530Z,49.64
2018-07-24T13:29:12.043Z,50.22
2018-07-24T13:31:40.606Z,50.15
2018-07-24T13:34:09.265Z,51.07
2018-07-24T13:36:37.742Z,50.71
2018-07-24T13:39:09.042Z,50.42
2018-07-24T13:41:37.595Z,50.42
2018-07-24T13:44:06.206Z,50.65
2018-07-24T13:46:38.778Z,50.96
2018-07-24T13:49:07.431Z,51.05
2018-07-24T13:51:36.051Z,48.88
2018-07-24T13:54:04.841Z,45.04
2018-07-24T13:56:33.472Z,44.06
2018-07-24T13:59:02.251Z,44.27
2018-07-24T14:01:30.678Z,47.03
2018-07-24T14:03:59.146Z,48.34
2018-07-24T14:06:27.643Z,49.99
2018-07-24T14:08:56.202Z,50.58
2018-07-24T14:11:24.753Z,50.19
2018-07-24T14:13:53.396Z,50.43
2018-07-24T14:16:21.926Z,49.28
2018-07-24T14:18:50.614Z,48.41
2018-07-24T14:21:19.170Z,46.86
2018-07-24T14:23:47.745Z,43.78
2018-07-24T14:26:16.856Z,41.93
2018-07-24T14:28:45.410Z,40.04
2018-07-24T14:31:13.933Z,41.70
2018-07-24T14:33:42.467Z,45.85
2018-07-24T14:36:11.209Z,47.57
2018-07-24T14:38:39.737Z,49.35
2018-07-24T14:41:08.377Z,50.58
2018-07-24T14:43:36.974Z,52.02
2018-07-24T14:46:05.520Z,51.39
2018-07-24T14:48:34.215Z,51.50
2018-07-24T14:51:02.806Z,51.30
2018-07-24T14:53:31.823Z,51.85
2018-07-24T14:56:00.367Z,49.94
2018-07-24T14:58:28.914Z,49.52
2018-07-24T15:00:57.538Z,49.25
2018-07-24T15:03:26.106Z,48.43
2018-07-24T15:05:54.606Z,48.62
2018-07-24T15:08:23.506Z,48.58
2018-07-24T15:10:54.515Z,48.23
2018-07-24T15:13:23.573Z,44.16
2018-07-24T15:15:52.325Z,42.81
2018-07-24T15:18:21.027Z,42.63
2018-07-24T15:20:49.619Z,41.03
2018-07-24T15:23:18.218Z,41.18
2018-07-24T15:27:05.900Z,42.50
2018-07-24T15:29:34.505Z,42.64
2018-07-24T15:32:03.291Z,40.21
2018-07-24T15:34:31.875Z,39.24
2018-07-24T15:37:00.397Z,40.41
2018-07-24T15:39:28.897Z,40.89
2018-07-24T15:41:57.390Z,42.40
2018-07-24T15:44:26.030Z,44.19
2018-07-24T15:46:54.612Z,44.09
2018-07-24T15:49:23.114Z,41.15
2018-07-24T15:51:51.999Z,41.00
2018-07-24T15:54:20.502Z,41.98
2018-07-24T15:56:49.017Z,44.09
2018-07-24T15:59:17.546Z,45.21
2018-07-24T16:01:46.218Z,43.80
2018-07-24T16:04:14.786Z,42.68
2018-07-24T16:06:43.347Z,43.80
2018-07-24T16:09:13.286Z,44.38
2018-07-24T16:11:41.942Z,44.33
2018-07-24T16:14:10.975Z,43.80
2018-07-24T16:16:39.658Z,46.34
2018-07-24T16:19:08.389Z,47.44
2018-07-24T16:21:36.977Z,47.42
2018-07-24T16:24:05.682Z,45.11
2018-07-24T16:26:34.206Z,46.22
2018-07-24T16:29:02.711Z,46.20
2018-07-24T16:31:31.270Z,43.73
2018-07-24T16:33:59.797Z,45.68
2018-07-24T16:36:28.306Z,46.24
2018-07-24T16:38:57.181Z,46.18
2018-07-24T16:41:25.958Z,44.42
2018-07-24T16:43:54.602Z,45.01
2018-07-24T16:46:23.114Z,45.19
2018-07-24T16:48:51.706Z,45.51
2018-07-24T16:51:23.984Z,44.79
2018-07-24T16:53:52.714Z,42.80
2018-07-24T16:56:21.396Z,40.62
2018-07-24T16:58:50.425Z,39.90
2018-07-24T17:01:19.249Z,40.00
2018-07-24T17:03:47.795Z,40.36
2018-07-24T17:06:16.385Z,42.52
2018-07-24T17:08:45.071Z,43.88
2018-07-24T17:11:13.677Z,43.07
2018-07-24T17:13:42.280Z,42.97
2018-07-24T17:16:10.825Z,41.99
2018-07-24T17:18:39.354Z,40.81
2018-07-24T17:21:07.938Z,40.97
2018-07-24T17:23:36.568Z,41.73
2018-07-24T17:26:05.183Z,41.27
2018-07-24T17:28:33.880Z,40.63
2018-07-24T17:31:02.499Z,40.38
2018-07-24T17:33:31.059Z,40.54
2018-07-24T17:35:59.869Z,41.00
2018-07-24T17:38:28.399Z,41.00
2018-07-24T17:40:57.126Z,40.61
2018-07-24T17:43:25.719Z,38.57
2018-07-24T17:45:54.408Z,37.67
2018-07-24T17:48:23.104Z,38.25
2018-07-24T17:50:51.849Z,39.11
2018-07-24T17:53:21.035Z,39.46
2018-07-24T17:55:49.604Z,38.71
2018-07-24T17:58:18.429Z,37.43
2018-07-24T18:00:47.054Z,35.86
2018-07-24T18:03:15.701Z,35.00
2018-07-24T18:05:44.297Z,34.28
2018-07-24T18:08:13.041Z,33.69
2018-07-24T18:10:41.554Z,33.43
2018-07-24T18:13:10.070Z,33.07
2018-07-24T18:15:38.635Z,32.84
2018-07-24T18:18:07.250Z,32.53
2018-07-24T18:20:35.795Z,32.25
2018-07-24T18:23:04.349Z,32.06
2018-07-24T18:25:32.919Z,31.95
2018-07-24T18:28:01.462Z,31.94
2018-07-24T18:30:30.025Z,31.78
2018-07-24T18:32:58.511Z,31.66
2018-07-24T18:35:27.033Z,31.61
2018-07-24T18:37:55.675Z,31.55
2018-07-24T18:45:13.295Z,31.07
2018-07-24T18:47:42.131Z,30.92
2018-07-24T18:50:10.751Z,30.75
2018-07-24T18:52:39.206Z,30.54
2018-07-24T18:55:07.761Z,30.15
2018-07-24T18:57:36.274Z,29.06
2018-07-24T19:00:05.175Z,28.41
2018-07-24T19:02:34.358Z,28.13
2018-07-24T19:05:03.066Z,28.09
2018-07-24T19:07:31.522Z,27.91
2018-07-24T19:10:00.008Z,27.84
2018-07-24T19:12:28.541Z,27.81
2018-07-24T19:14:57.138Z,27.69
2018-07-24T19:17:25.670Z,27.63
2018-07-24T19:19:54.458Z,27.60
2018-07-24T19:22:22.993Z,27.55
2018-07-24T19:24:51.568Z,27.56
2018-07-24T19:27:20.129Z,27.51
2018-07-24T19:29:48.699Z,27.48
2018-07-24T19:32:17.207Z,27.45
2018-07-24T19:34:45.837Z,27.41
2018-07-24T19:37:14.326Z,27.42
2018-07-24T19:39:42.839Z,27.43
2018-07-24T19:42:11.391Z,27.36
2018-07-24T19:44:39.912Z,27.26
2018-07-24T19:47:08.530Z,27.17
2018-07-24T19:49:37.125Z,27.11
2018-07-24T19:52:05.636Z,27.12
2018-07-24T19:54:34.247Z,27.04
2018-07-24T19:57:02.826Z,27.06
2018-07-24T19:59:31.294Z,27.03
2018-07-24T20:01:59.899Z,27.02
2018-07-24T20:04:28.357Z,26.99
2018-07-24T20:06:56.954Z,26.93
2018-07-24T20:09:25.428Z,26.85
2018-07-24T20:11:54.126Z,26.79
2018-07-24T20:14:22.619Z,26.74
2018-07-24T20:16:51.293Z,26.82
2018-07-24T20:19:19.741Z,26.79
2018-07-24T20:21:48.214Z,26.72
2018-07-24T20:24:16.801Z,26.67
2018-07-24T20:26:45.366Z,26.60
2018-07-24T20:29:13.882Z,26.60
2018-07-24T20:31:43.414Z,26.55
2018-07-24T20:34:12.156Z,26.54
2018-07-24T20:36:40.938Z,26.51
2018-07-24T20:39:11.168Z,26.45
2018-07-24T20:41:39.989Z,26.43
2018-07-24T20:44:08.941Z,26.41
2018-07-24T20:46:37.640Z,26.40
2018-07-24T20:49:06.423Z,26.39
2018-07-24T20:51:35.150Z,26.42
2018-07-24T20:54:03.866Z,26.36
2018-07-24T20:56:32.484Z,26.28
2018-07-24T20:59:01.045Z,26.18
2018-07-24T21:01:29.666Z,26.12
2018-07-24T21:03:58.179Z,26.18
2018-07-24T21:06:26.747Z,26.22
2018-07-24T21:08:55.275Z,26.20
2018-07-24T21:11:23.862Z,26.23
2018-07-24T21:13:52.494Z,26.20
2018-07-24T21:16:21.106Z,26.22
2018-07-24T21:18:50.219Z,26.24
2018-07-24T21:21:18.787Z,26.23
2018-07-24T21:23:47.290Z,26.16
2018-07-24T21:26:15.910Z,26.11
2018-07-24T21:28:44.778Z,26.11
2018-07-24T21:31:13.303Z,26.04
2018-07-24T21:33:41.790Z,25.97
2018-07-24T21:36:10.587Z,25.93
2018-07-24T21:38:39.073Z,25.87
2018-07-24T21:41:07.673Z,25.82
2018-07-24T21:43:36.296Z,25.81
2018-07-24T21:46:04.795Z,25.77
2018-07-24T21:48:33.330Z,25.71
2018-07-24T21:51:01.874Z,25.64
2018-07-24T21:53:30.407Z,25.52
2018-07-24T21:55:58.933Z,25.47
2018-07-24T21:58:27.561Z,25.39
2018-07-24T22:01:01.330Z,25.30
2018-07-24T22:03:29.866Z,25.19
2018-07-24T22:05:58.541Z,25.13
2018-07-24T22:08:27.178Z,25.00
2018-07-24T22:10:55.781Z,24.85
2018-07-24T22:13:24.262Z,24.76
2018-07-24T22:15:52.743Z,24.67
2018-07-24T22:18:21.287Z,24.66
2018-07-24T22:20:49.797Z,24.68
2018-07-24T22:23:18.354Z,24.62
2018-07-24T22:25:46.966Z,24.62
2018-07-24T22:28:15.455Z,24.55
2018-07-24T22:30:43.921Z,24.48
2018-07-24T22:33:12.490Z,24.43
2018-07-24T22:35:41.012Z,24.34
2018-07-24T22:38:09.550Z,24.28
2018-07-24T22:40:38.126Z,24.21
2018-07-24T22:43:06.770Z,24.14
2018-07-24T22:45:35.395Z,24.08
2018-07-24T22:48:04.083Z,24.07
2018-07-24T22:50:32.626Z,24.09
2018-07-24T22:53:01.158Z,24.12
2018-07-24T22:55:29.718Z,24.13
2018-07-24T22:57:58.214Z,24.09
2018-07-24T23:00:29.286Z,24.07
2018-07-24T23:02:58.001Z,24.07
2018-07-24T23:05:26.619Z,24.10
2018-07-24T23:07:55.263Z,24.18
2018-07-24T23:10:30.273Z,24.20
2018-07-24T23:12:58.870Z,24.23
2018-07-24T23:15:27.385Z,24.27
2018-07-24T23:17:56.958Z,24.32
2018-07-24T23:20:26.075Z,24.27
2018-07-24T23:22:54.603Z,24.20
2018-07-24T23:25:24.589Z,24.11
2018-07-24T23:27:53.485Z,24.06
2018-07-24T23:30:22.111Z,23.96
2018-07-24T23:32:50.590Z,23.87
2018-07-24T23:35:19.134Z,23.78
2018-07-24T23:37:47.662Z,23.66
2018-07-24T23:40:16.250Z,23.55
2018-07-24T23:42:44.750Z,23.45
2018-07-24T23:45:13.292Z,23.36
2018-07-24T23:47:41.860Z,23.26
2018-07-24T23:50:10.460Z,23.17
2018-07-24T23:52:39.246Z,23.10
2018-07-24T23:55:07.835Z,23.08
2018-07-24T23:57:36.393Z,23.02
